createdAt,value
2018-09-13T00:00:58.131Z,0.00
2018-09-13T00:01:58.121Z,0.00
2018-09-13T00:02:58.109Z,0.00
2018-09-13T00:03:58.101Z,0.00
2018-09-13T00:04:58.088Z,0.00
2018-09-13T00:05:58.197Z,0.00
2018-09-13T00:06:58.068Z,0.00
2018-09-13T00:07:58.059Z,0.00
2018-09-13T00:08:58.046Z,0.00
2018-09-13T00:09:58.033Z,0.00
2018-09-13T00:10:58.023Z,0.00
2018-09-13T00:11:58.013Z,0.00
2018-09-13T00:12:57.999Z,0.00
2018-09-13T00:13:57.990Z,0.00
2018-09-13T00:14:57.979Z,0.00
2018-09-13T00:15:57.965Z,0.00
2018-09-13T00:16:57.959Z,0.00
2018-09-13T00:17:57.946Z,0.00
2018-09-13T00:18:57.934Z,0.00
2018-09-13T00:19:57.922Z,0.00
2018-09-13T00:20:57.910Z,0.00
2018-09-13T00:21:57.901Z,0.00
2018-09-13T00:22:57.889Z,0.00
2018-09-13T00:23:57.879Z,0.00
2018-09-13T00:24:57.872Z,0.00
2018-09-13T00:25:57.855Z,0.00
2018-09-13T00:26:57.847Z,0.00
2018-09-13T00:27:57.833Z,0.00
2018-09-13T00:28:57.825Z,0.00
2018-09-13T00:29:57.816Z,0.00
2018-09-13T00:30:57.803Z,0.00
2018-09-13T00:31:57.790Z,0.00
2018-09-13T00:32:57.786Z,0.00
2018-09-13T00:33:57.769Z,0.00
2018-09-13T00:34:57.757Z,0.00
2018-09-13T00:35:57.746Z,0.00
2018-09-13T00:36:57.733Z,0.00
2018-09-13T00:37:57.723Z,0.00
2018-09-13T00:38:57.712Z,0.00
2018-09-13T00:39:57.703Z,0.00
2018-09-13T00:40:57.691Z,0.00
2018-09-13T00:41:57.684Z,0.00
2018-09-13T00:42:57.671Z,0.00
2018-09-13T00:43:57.658Z,0.00
2018-09-13T00:44:57.649Z,0.00
2018-09-13T00:45:57.640Z,0.00
2018-09-13T00:46:57.627Z,0.00
2018-09-13T00:47:57.613Z,0.00
2018-09-13T00:48:57.606Z,0.00
2018-09-13T00:49:57.606Z,0.00
2018-09-13T00:50:57.587Z,0.00
2018-09-13T00:51:57.573Z,0.00
2018-09-13T00:52:57.560Z,0.00
2018-09-13T00:53:57.559Z,0.00
2018-09-13T00:54:57.542Z,0.00
2018-09-13T00:55:57.526Z,0.00
2018-09-13T00:56:57.515Z,0.00
2018-09-13T00:57:57.505Z,0.00
2018-09-13T00:58:57.599Z,0.00
2018-09-13T00:59:57.485Z,0.00
2018-09-13T01:00:57.476Z,0.00
2018-09-13T01:01:57.462Z,0.00
2018-09-13T01:02:57.452Z,0.00
2018-09-13T01:03:57.439Z,0.00
2018-09-13T01:04:57.428Z,0.00
2018-09-13T01:05:57.417Z,0.00
2018-09-13T01:06:57.412Z,0.00
2018-09-13T01:07:57.396Z,0.00
2018-09-13T01:08:57.389Z,0.00
2018-09-13T01:09:57.375Z,0.00
2018-09-13T01:10:57.364Z,0.00
2018-09-13T01:11:57.355Z,0.00
2018-09-13T01:12:57.344Z,0.00
2018-09-13T01:13:57.331Z,0.00
2018-09-13T01:14:57.320Z,0.00
2018-09-13T01:15:57.311Z,0.00
2018-09-13T01:16:57.298Z,0.00
2018-09-13T01:17:57.292Z,0.00
2018-09-13T01:18:57.278Z,0.00
2018-09-13T01:19:57.264Z,0.00
2018-09-13T01:20:57.253Z,0.00
2018-09-13T01:21:57.242Z,0.00
2018-09-13T01:22:57.232Z,0.00
2018-09-13T01:23:57.224Z,0.00
2018-09-13T01:24:57.212Z,0.00
2018-09-13T01:25:57.201Z,0.00
2018-09-13T01:26:57.190Z,0.00
2018-09-13T01:27:57.179Z,0.00
2018-09-13T01:28:57.168Z,0.00
2018-09-13T01:29:57.157Z,0.00
2018-09-13T01:30:57.150Z,0.00
2018-09-13T01:31:57.133Z,0.00
2018-09-13T01:32:57.123Z,0.00
2018-09-13T01:33:57.115Z,0.00
2018-09-13T01:34:57.101Z,0.00
2018-09-13T01:35:57.089Z,0.00
2018-09-13T01:36:57.081Z,0.00
2018-09-13T01:37:57.073Z,0.00
2018-09-13T01:38:57.060Z,0.00
2018-09-13T01:39:57.050Z,0.00
2018-09-13T01:40:57.038Z,0.00
2018-09-13T01:41:57.024Z,0.00
2018-09-13T01:42:57.016Z,0.00
2018-09-13T01:43:57.006Z,0.00
2018-09-13T01:44:56.993Z,0.00
2018-09-13T01:45:56.981Z,0.00
2018-09-13T01:46:56.972Z,0.00
2018-09-13T01:47:56.959Z,0.00
2018-09-13T01:48:56.952Z,0.00
2018-09-13T01:49:56.943Z,0.00
2018-09-13T01:50:56.930Z,0.00
2018-09-13T01:51:56.918Z,0.00
2018-09-13T01:52:56.904Z,0.00
2018-09-13T01:53:56.930Z,0.00
2018-09-13T01:54:56.884Z,0.00
2018-09-13T01:55:56.874Z,0.00
2018-09-13T01:56:56.863Z,0.00
2018-09-13T01:57:56.850Z,0.00
2018-09-13T01:58:56.841Z,0.00
2018-09-13T01:59:56.830Z,0.00
2018-09-13T02:00:56.848Z,0.00
2018-09-13T02:01:56.806Z,0.00
2018-09-13T02:02:56.796Z,0.00
2018-09-13T02:03:56.786Z,0.00
2018-09-13T02:04:56.775Z,0.00
2018-09-13T02:05:56.763Z,0.00
2018-09-13T02:06:56.752Z,0.00
2018-09-13T02:07:56.740Z,0.00
2018-09-13T02:08:56.733Z,0.00
2018-09-13T02:09:56.719Z,0.00
2018-09-13T02:10:56.707Z,0.00
2018-09-13T02:11:56.697Z,0.00
2018-09-13T02:12:56.684Z,0.00
2018-09-13T02:13:56.676Z,0.00
2018-09-13T02:14:56.665Z,0.00
2018-09-13T02:15:56.655Z,0.00
2018-09-13T02:16:56.646Z,0.00
2018-09-13T02:17:56.631Z,0.00
2018-09-13T02:18:56.619Z,0.00
2018-09-13T02:19:56.608Z,0.00
2018-09-13T02:20:56.596Z,0.00
2018-09-13T02:21:56.586Z,0.00
2018-09-13T02:22:56.575Z,0.00
2018-09-13T02:23:56.566Z,0.00
2018-09-13T02:24:56.558Z,0.00
2018-09-13T02:25:56.545Z,0.00
2018-09-13T02:26:56.532Z,0.00
2018-09-13T02:27:56.517Z,0.00
2018-09-13T02:28:56.508Z,0.00
2018-09-13T02:29:56.503Z,0.00
2018-09-13T02:30:56.487Z,0.00
2018-09-13T02:31:56.478Z,0.00
2018-09-13T02:32:56.463Z,0.00
2018-09-13T02:33:56.455Z,0.00
2018-09-13T02:34:56.445Z,0.00
2018-09-13T02:35:56.431Z,0.00
2018-09-13T02:36:56.437Z,0.00
2018-09-13T02:37:56.408Z,0.00
2018-09-13T02:38:56.397Z,0.00
2018-09-13T02:39:56.389Z,0.00
2018-09-13T02:40:56.376Z,0.00
2018-09-13T02:41:56.366Z,0.00
2018-09-13T02:42:56.352Z,0.00
2018-09-13T02:43:56.342Z,0.00
2018-09-13T02:44:56.330Z,0.00
2018-09-13T02:45:56.323Z,0.00
2018-09-13T02:46:56.309Z,0.00
2018-09-13T02:47:56.296Z,0.00
2018-09-13T02:48:56.338Z,0.00
2018-09-13T02:49:56.281Z,0.00
2018-09-13T02:50:56.266Z,0.00
2018-09-13T02:51:56.258Z,0.00
2018-09-13T02:52:56.244Z,0.00
2018-09-13T02:53:56.238Z,0.00
2018-09-13T02:54:56.223Z,0.00
2018-09-13T02:55:56.210Z,0.00
2018-09-13T02:56:56.199Z,0.00
2018-09-13T02:57:56.193Z,0.00
2018-09-13T02:58:56.182Z,0.00
2018-09-13T02:59:56.165Z,0.00
2018-09-13T03:00:56.155Z,0.00
2018-09-13T03:01:56.147Z,0.00
2018-09-13T03:02:56.133Z,0.00
2018-09-13T03:03:56.124Z,0.00
2018-09-13T03:04:56.112Z,0.00
2018-09-13T03:05:56.098Z,0.00
2018-09-13T03:06:56.088Z,0.00
2018-09-13T03:07:56.075Z,0.00
2018-09-13T03:08:56.068Z,0.00
2018-09-13T03:09:56.157Z,0.00
2018-09-13T03:10:56.048Z,0.00
2018-09-13T03:11:56.035Z,0.00
2018-09-13T03:12:56.021Z,0.00
2018-09-13T03:13:56.018Z,0.00
2018-09-13T03:14:55.999Z,0.00
2018-09-13T03:15:55.990Z,0.00
2018-09-13T03:16:55.978Z,0.00
2018-09-13T03:17:55.969Z,0.00
2018-09-13T03:18:55.956Z,0.00
2018-09-13T03:19:55.950Z,0.00
2018-09-13T03:20:55.933Z,0.00
2018-09-13T03:21:55.925Z,0.00
2018-09-13T03:22:55.913Z,0.00
2018-09-13T03:23:55.901Z,0.00
2018-09-13T03:24:55.890Z,0.00
2018-09-13T03:25:55.877Z,0.00
2018-09-13T03:26:55.869Z,0.00
2018-09-13T03:27:55.858Z,0.00
2018-09-13T03:28:55.844Z,0.00
2018-09-13T03:29:55.835Z,0.00
2018-09-13T03:30:55.823Z,0.00
2018-09-13T03:31:55.811Z,0.00
2018-09-13T03:32:55.802Z,0.00
2018-09-13T03:33:55.789Z,0.00
2018-09-13T03:34:55.778Z,0.00
2018-09-13T03:35:55.770Z,0.00
2018-09-13T03:36:55.758Z,0.00
2018-09-13T03:37:55.745Z,0.00
2018-09-13T03:38:55.732Z,0.00
2018-09-13T03:39:55.725Z,0.00
2018-09-13T03:40:55.714Z,0.00
2018-09-13T03:41:55.703Z,0.00
2018-09-13T03:42:55.691Z,0.00
2018-09-13T03:43:55.680Z,0.00
2018-09-13T03:44:55.670Z,0.00
2018-09-13T03:45:55.658Z,0.00
2018-09-13T03:46:55.649Z,0.00
2018-09-13T03:47:55.638Z,0.00
2018-09-13T03:48:55.624Z,0.00
2018-09-13T03:49:55.613Z,0.00
2018-09-13T03:50:55.603Z,0.00
2018-09-13T03:51:55.591Z,0.00
2018-09-13T03:52:55.581Z,0.00
2018-09-13T03:53:55.570Z,0.00
2018-09-13T03:54:55.561Z,0.00
2018-09-13T03:55:55.557Z,0.00
2018-09-13T03:56:55.536Z,0.00
2018-09-13T03:57:55.526Z,0.00
2018-09-13T03:58:55.515Z,0.00
2018-09-13T03:59:55.501Z,0.00
2018-09-13T04:00:55.491Z,0.00
2018-09-13T04:01:55.482Z,0.00
2018-09-13T04:02:55.474Z,0.00
2018-09-13T04:03:55.458Z,0.00
2018-09-13T04:04:55.449Z,0.00
2018-09-13T04:05:55.435Z,0.00
2018-09-13T04:06:55.424Z,0.00
2018-09-13T04:07:55.415Z,0.00
2018-09-13T04:08:55.402Z,0.00
2018-09-13T04:09:55.391Z,0.00
2018-09-13T04:10:55.381Z,0.00
2018-09-13T04:11:55.368Z,0.00
2018-09-13T04:12:55.363Z,0.00
2018-09-13T04:13:55.347Z,0.00
2018-09-13T04:14:55.337Z,0.00
2018-09-13T04:15:55.326Z,0.00
2018-09-13T04:16:55.317Z,0.00
2018-09-13T04:17:55.303Z,0.00
2018-09-13T04:18:55.387Z,0.00
2018-09-13T04:19:55.282Z,0.00
2018-09-13T04:20:55.271Z,0.00
2018-09-13T04:21:55.259Z,0.00
2018-09-13T04:22:55.250Z,0.00
2018-09-13T04:23:55.237Z,0.00
2018-09-13T04:24:55.230Z,0.00
2018-09-13T04:25:55.215Z,0.00
2018-09-13T04:26:55.205Z,0.00
2018-09-13T04:27:55.196Z,0.00
2018-09-13T04:28:55.184Z,0.00
2018-09-13T04:29:55.172Z,0.00
2018-09-13T04:30:55.159Z,0.00
2018-09-13T04:31:55.149Z,0.00
2018-09-13T04:32:55.142Z,0.00
2018-09-13T04:33:55.126Z,0.00
2018-09-13T04:34:55.115Z,0.00
2018-09-13T04:35:55.280Z,0.00
2018-09-13T04:36:55.092Z,0.00
2018-09-13T04:37:55.084Z,0.00
2018-09-13T04:38:55.076Z,0.00
2018-09-13T04:39:55.062Z,0.00
2018-09-13T04:40:55.050Z,4.00
2018-09-13T04:41:55.038Z,4.00
2018-09-13T04:42:55.035Z,4.00
2018-09-13T04:43:55.017Z,0.00
2018-09-13T04:44:55.006Z,4.00
2018-09-13T04:45:54.994Z,4.00
2018-09-13T04:46:54.985Z,4.00
2018-09-13T04:47:54.977Z,8.00
2018-09-13T04:48:54.966Z,8.00
2018-09-13T04:49:54.955Z,8.00
2018-09-13T04:50:54.940Z,12.00
2018-09-13T04:51:54.932Z,16.00
2018-09-13T04:52:54.917Z,16.00
2018-09-13T04:53:54.909Z,16.00
2018-09-13T04:54:54.896Z,20.00
2018-09-13T04:55:54.883Z,24.00
2018-09-13T04:56:54.892Z,28.00
2018-09-13T04:57:54.861Z,32.00
2018-09-13T04:58:54.854Z,32.00
2018-09-13T04:59:54.841Z,32.00
2018-09-13T05:00:54.834Z,40.00
2018-09-13T05:01:54.821Z,40.00
2018-09-13T05:02:54.806Z,44.00
2018-09-13T05:03:54.797Z,48.00
2018-09-13T05:04:54.786Z,56.00
2018-09-13T05:05:54.777Z,56.00
2018-09-13T05:06:54.769Z,64.00
2018-09-13T05:07:54.756Z,64.00
2018-09-13T05:08:54.740Z,64.00
2018-09-13T05:09:54.728Z,68.00
2018-09-13T05:10:54.721Z,72.00
2018-09-13T05:11:54.711Z,72.00
2018-09-13T05:12:54.831Z,80.00
2018-09-13T05:13:54.687Z,88.00
2018-09-13T05:14:54.675Z,96.00
2018-09-13T05:15:54.662Z,104.00
2018-09-13T05:16:54.661Z,112.00
2018-09-13T05:17:54.641Z,120.00
2018-09-13T05:18:54.631Z,120.00
2018-09-13T05:19:54.624Z,120.00
2018-09-13T05:20:54.610Z,116.00
2018-09-13T05:21:54.597Z,112.00
2018-09-13T05:22:54.589Z,112.00
2018-09-13T05:23:54.576Z,120.00
2018-09-13T05:24:54.568Z,128.00
2018-09-13T05:25:54.553Z,140.00
2018-09-13T05:26:54.540Z,152.00
2018-09-13T05:27:54.532Z,164.00
2018-09-13T05:28:54.526Z,180.00
2018-09-13T05:29:54.512Z,192.00
2018-09-13T05:30:54.497Z,208.00
2018-09-13T05:31:54.486Z,228.00
2018-09-13T05:32:54.478Z,256.00
2018-09-13T05:33:54.466Z,296.00
2018-09-13T05:34:54.457Z,336.00
2018-09-13T05:35:54.448Z,368.00
2018-09-13T05:36:54.432Z,388.00
2018-09-13T05:37:54.423Z,384.00
2018-09-13T05:38:54.448Z,372.00
2018-09-13T05:39:54.401Z,360.00
2018-09-13T05:40:54.387Z,348.00
2018-09-13T05:41:54.376Z,352.00
2018-09-13T05:42:54.370Z,360.00
2018-09-13T05:43:54.360Z,368.00
2018-09-13T05:44:54.345Z,380.00
2018-09-13T05:45:54.334Z,388.00
2018-09-13T05:46:54.326Z,404.00
2018-09-13T05:47:54.320Z,424.00
2018-09-13T05:48:54.300Z,448.00
2018-09-13T05:49:54.289Z,476.00
2018-09-13T05:50:54.279Z,496.00
2018-09-13T05:51:54.265Z,508.00
2018-09-13T05:52:54.257Z,508.00
2018-09-13T05:53:54.243Z,508.00
2018-09-13T05:54:54.234Z,504.00
2018-09-13T05:55:54.222Z,496.00
2018-09-13T05:56:54.216Z,504.00
2018-09-13T05:57:54.201Z,516.00
2018-09-13T05:58:54.189Z,520.00
2018-09-13T05:59:54.180Z,536.00
2018-09-13T06:00:54.167Z,552.00
2018-09-13T06:01:54.159Z,580.00
2018-09-13T06:02:54.148Z,600.00
2018-09-13T06:03:54.139Z,616.00
2018-09-13T06:04:54.124Z,636.00
2018-09-13T06:05:54.140Z,664.00
2018-09-13T06:06:54.102Z,688.00
2018-09-13T06:07:54.105Z,732.00
2018-09-13T06:08:54.079Z,780.00
2018-09-13T06:09:54.078Z,832.00
2018-09-13T06:10:54.059Z,900.00
2018-09-13T06:11:54.046Z,968.00
2018-09-13T06:12:54.037Z,1016.00
2018-09-13T06:13:54.030Z,1036.00
2018-09-13T06:14:54.019Z,1028.00
2018-09-13T06:15:54.004Z,1000.00
2018-09-13T06:16:53.993Z,964.00
2018-09-13T06:17:53.982Z,936.00
2018-09-13T06:18:53.974Z,936.00
2018-09-13T06:19:54.027Z,936.00
2018-09-13T06:20:53.950Z,952.00
2018-09-13T06:21:53.940Z,960.00
2018-09-13T06:22:53.927Z,948.00
2018-09-13T06:23:53.915Z,916.00
2018-09-13T06:24:53.905Z,868.00
2018-09-13T06:25:53.894Z,812.00
2018-09-13T06:26:53.886Z,764.00
2018-09-13T06:27:53.876Z,728.00
2018-09-13T06:28:53.860Z,704.00
2018-09-13T06:29:53.854Z,704.00
2018-09-13T06:30:53.840Z,716.00
2018-09-13T06:31:53.832Z,736.00
2018-09-13T06:32:53.817Z,768.00
2018-09-13T06:33:53.805Z,784.00
2018-09-13T06:34:53.799Z,800.00
2018-09-13T06:35:53.787Z,820.00
2018-09-13T06:36:53.778Z,840.00
2018-09-13T06:37:53.766Z,860.00
2018-09-13T06:38:53.754Z,880.00
2018-09-13T06:39:53.749Z,904.00
2018-09-13T06:40:53.736Z,944.00
2018-09-13T06:41:53.721Z,1008.00
2018-09-13T06:42:53.713Z,1104.00
2018-09-13T06:43:53.702Z,1232.00
2018-09-13T06:44:53.689Z,1388.00
2018-09-13T06:45:53.677Z,1532.00
2018-09-13T06:46:53.667Z,1648.00
2018-09-13T06:47:53.654Z,1712.00
2018-09-13T06:48:53.644Z,1748.00
2018-09-13T06:49:53.635Z,1788.00
2018-09-13T06:50:53.622Z,1860.00
2018-09-13T06:51:53.612Z,1980.00
2018-09-13T06:52:53.599Z,2132.00
2018-09-13T06:53:53.590Z,2304.00
2018-09-13T06:54:53.577Z,2452.00
2018-09-13T06:55:53.566Z,2528.00
2018-09-13T06:56:53.557Z,2532.00
2018-09-13T06:57:53.548Z,2480.00
2018-09-13T06:58:53.535Z,2416.00
2018-09-13T06:59:53.557Z,2348.00
2018-09-13T07:00:53.512Z,2272.00
2018-09-13T07:01:53.504Z,2192.00
2018-09-13T07:02:53.497Z,2128.00
2018-09-13T07:03:53.485Z,2104.00
2018-09-13T07:04:53.488Z,2152.00
2018-09-13T07:05:53.487Z,2260.00
2018-09-13T07:06:53.447Z,2424.00
2018-09-13T07:07:53.438Z,2632.00
2018-09-13T07:08:53.428Z,2824.00
2018-09-13T07:09:53.418Z,2952.00
2018-09-13T07:10:53.403Z,3012.00
2018-09-13T07:11:53.392Z,3040.00
2018-09-13T07:12:53.383Z,3044.00
2018-09-13T07:13:53.371Z,3080.00
2018-09-13T07:14:53.362Z,3112.00
2018-09-13T07:15:53.351Z,3148.00
2018-09-13T07:16:53.343Z,3148.00
2018-09-13T07:17:53.329Z,3092.00
2018-09-13T07:18:53.319Z,3004.00
2018-09-13T07:19:53.305Z,2900.00
2018-09-13T07:20:53.294Z,2784.00
2018-09-13T07:21:53.284Z,2652.00
2018-09-13T07:22:53.275Z,2496.00
2018-09-13T07:23:53.264Z,2356.00
2018-09-13T07:24:53.251Z,2256.00
2018-09-13T07:25:53.240Z,2200.00
2018-09-13T07:26:53.229Z,2156.00
2018-09-13T07:27:53.221Z,2116.00
2018-09-13T07:28:53.208Z,2048.00
2018-09-13T07:29:53.197Z,1956.00
2018-09-13T07:30:53.271Z,1888.00
2018-09-13T07:31:53.175Z,1848.00
2018-09-13T07:32:53.172Z,1836.00
2018-09-13T07:33:53.155Z,1836.00
2018-09-13T07:34:53.143Z,1848.00
2018-09-13T07:35:53.129Z,1896.00
2018-09-13T07:36:53.219Z,1992.00
2018-09-13T07:37:53.110Z,2152.00
2018-09-13T07:38:53.097Z,2392.00
2018-09-13T07:39:53.089Z,2656.00
2018-09-13T07:40:53.082Z,2888.00
2018-09-13T07:41:53.064Z,3040.00
2018-09-13T07:42:53.166Z,3160.00
2018-09-13T07:43:53.046Z,3300.00
2018-09-13T07:44:53.035Z,3428.00
2018-09-13T07:45:53.023Z,3568.00
2018-09-13T07:46:53.016Z,3764.00
2018-09-13T07:47:53.000Z,3996.00
2018-09-13T07:48:52.995Z,4188.00
2018-09-13T07:49:53.130Z,4280.00
2018-09-13T07:50:52.966Z,4280.00
2018-09-13T07:51:52.957Z,4264.00
2018-09-13T07:52:52.944Z,4268.00
2018-09-13T07:53:52.934Z,4248.00
2018-09-13T07:54:52.943Z,4140.00
2018-09-13T07:55:53.098Z,3928.00
2018-09-13T07:56:52.908Z,3656.00
2018-09-13T07:57:52.891Z,3340.00
2018-09-13T07:58:52.877Z,3016.00
2018-09-13T07:59:52.867Z,2744.00
2018-09-13T08:00:52.855Z,2540.00
2018-09-13T08:01:52.847Z,2392.00
2018-09-13T08:02:52.834Z,2336.00
2018-09-13T08:03:52.824Z,2412.00
2018-09-13T08:04:52.815Z,2604.00
2018-09-13T08:05:52.801Z,2836.00
2018-09-13T08:06:52.790Z,2992.00
2018-09-13T08:07:52.779Z,3044.00
2018-09-13T08:08:52.767Z,2988.00
2018-09-13T08:09:52.758Z,2892.00
2018-09-13T08:10:52.747Z,2836.00
2018-09-13T08:11:52.767Z,2824.00
2018-09-13T08:12:52.732Z,2832.00
2018-09-13T08:13:52.711Z,2852.00
2018-09-13T08:14:52.701Z,2900.00
2018-09-13T08:15:52.789Z,2976.00
2018-09-13T08:16:52.680Z,3060.00
2018-09-13T08:17:52.669Z,3100.00
2018-09-13T08:18:52.659Z,3088.00
2018-09-13T08:19:52.646Z,3068.00
2018-09-13T08:20:52.640Z,3076.00
2018-09-13T08:21:52.629Z,3088.00
2018-09-13T08:22:52.622Z,3068.00
2018-09-13T08:23:52.611Z,3032.00
2018-09-13T08:24:52.595Z,3024.00
2018-09-13T08:25:52.588Z,3100.00
2018-09-13T08:26:52.572Z,3252.00
2018-09-13T08:27:52.560Z,3424.00
2018-09-13T08:28:52.548Z,3540.00
2018-09-13T08:29:52.537Z,3576.00
2018-09-13T08:30:52.525Z,3548.00
2018-09-13T08:31:52.515Z,3544.00
2018-09-13T08:32:52.505Z,3660.00
2018-09-13T08:33:52.491Z,3944.00
2018-09-13T08:34:52.580Z,4360.00
2018-09-13T08:35:52.473Z,4932.00
2018-09-13T08:36:52.512Z,5604.00
2018-09-13T08:37:52.449Z,6172.00
2018-09-13T08:38:52.438Z,6400.00
2018-09-13T08:39:52.494Z,6340.00
2018-09-13T08:40:52.413Z,6300.00
2018-09-13T08:41:52.405Z,6504.00
2018-09-13T08:42:52.398Z,6716.00
2018-09-13T08:43:52.383Z,6656.00
2018-09-13T08:44:52.370Z,6312.00
2018-09-13T08:45:52.359Z,5924.00
2018-09-13T08:46:52.351Z,5632.00
2018-09-13T08:47:52.340Z,5360.00
2018-09-13T08:48:52.339Z,5120.00
2018-09-13T08:49:52.316Z,4932.00
2018-09-13T08:50:52.307Z,4776.00
2018-09-13T08:51:52.334Z,4616.00
2018-09-13T08:52:52.286Z,4368.00
2018-09-13T08:53:52.273Z,4148.00
2018-09-13T08:54:52.262Z,4036.00
2018-09-13T08:55:52.250Z,4100.00
2018-09-13T08:56:52.241Z,4428.00
2018-09-13T08:57:52.237Z,4892.00
2018-09-13T08:58:52.217Z,5312.00
2018-09-13T08:59:52.205Z,5480.00
2018-09-13T09:00:52.205Z,5592.00
2018-09-13T09:01:52.199Z,5620.00
2018-09-13T09:02:52.173Z,5596.00
2018-09-13T09:03:52.162Z,5324.00
2018-09-13T09:04:52.152Z,4856.00
2018-09-13T09:05:52.222Z,4340.00
2018-09-13T09:06:52.132Z,3972.00
2018-09-13T09:07:52.121Z,3856.00
2018-09-13T09:08:52.131Z,3880.00
2018-09-13T09:09:52.107Z,4012.00
2018-09-13T09:10:52.084Z,4292.00
2018-09-13T09:11:52.156Z,4612.00
2018-09-13T09:12:52.095Z,4844.00
2018-09-13T09:13:52.055Z,4804.00
2018-09-13T09:14:52.045Z,4520.00
2018-09-13T09:15:52.035Z,4104.00
2018-09-13T09:16:52.024Z,3748.00
2018-09-13T09:17:52.014Z,3528.00
2018-09-13T09:18:52.000Z,3392.00
2018-09-13T09:19:51.988Z,3288.00
2018-09-13T09:20:51.977Z,3204.00
2018-09-13T09:21:51.974Z,3216.00
2018-09-13T09:22:51.960Z,3304.00
2018-09-13T09:23:51.946Z,3428.00
2018-09-13T09:24:51.933Z,3552.00
2018-09-13T09:25:51.923Z,3620.00
2018-09-13T09:26:51.913Z,3612.00
2018-09-13T09:27:51.900Z,3620.00
2018-09-13T09:28:51.952Z,3716.00
2018-09-13T09:29:51.899Z,3872.00
2018-09-13T09:30:51.867Z,4052.00
2018-09-13T09:31:51.861Z,4204.00
2018-09-13T09:32:51.846Z,4276.00
2018-09-13T09:33:51.833Z,4344.00
2018-09-13T09:34:51.929Z,4412.00
2018-09-13T09:35:51.816Z,4308.00
2018-09-13T09:36:51.802Z,4216.00
2018-09-13T09:37:51.790Z,4360.00
2018-09-13T09:38:51.780Z,4660.00
2018-09-13T09:39:51.788Z,4932.00
2018-09-13T09:40:51.758Z,4944.00
2018-09-13T09:41:51.749Z,4608.00
2018-09-13T09:42:51.751Z,4180.00
2018-09-13T09:43:51.727Z,3972.00
2018-09-13T09:44:51.711Z,3604.00
2018-09-13T09:45:51.703Z,3168.00
2018-09-13T09:46:51.695Z,2944.00
2018-09-13T09:47:51.681Z,2748.00
2018-09-13T09:48:51.670Z,2728.00
2018-09-13T09:49:51.657Z,2648.00
2018-09-13T09:50:51.645Z,2576.00
2018-09-13T09:51:51.638Z,2624.00
2018-09-13T09:52:51.626Z,2884.00
2018-09-13T09:53:51.613Z,3492.00
2018-09-13T09:54:51.606Z,4124.00
2018-09-13T09:55:51.591Z,4808.00
2018-09-13T09:56:51.580Z,4500.00
2018-09-13T09:57:51.577Z,4072.00
2018-09-13T09:58:51.559Z,4112.00
2018-09-13T09:59:51.549Z,4236.00
2018-09-13T10:00:51.546Z,4040.00
2018-09-13T10:01:51.526Z,3928.00
2018-09-13T10:02:51.519Z,4016.00
2018-09-13T10:03:51.509Z,3788.00
2018-09-13T10:04:51.494Z,3192.00
2018-09-13T10:05:51.486Z,3292.00
2018-09-13T10:06:51.471Z,4124.00
2018-09-13T10:07:51.459Z,4684.00
2018-09-13T10:08:51.482Z,5140.00
2018-09-13T10:09:51.469Z,5740.00
2018-09-13T10:10:51.427Z,5408.00
2018-09-13T10:11:51.417Z,5156.00
2018-09-13T10:12:51.408Z,5464.00
2018-09-13T10:13:51.425Z,6044.00
2018-09-13T10:14:51.381Z,6488.00
2018-09-13T10:15:51.371Z,6884.00
2018-09-13T10:16:51.361Z,7036.00
2018-09-13T10:17:51.351Z,7184.00
2018-09-13T10:18:51.338Z,7204.00
2018-09-13T10:19:51.334Z,6904.00
2018-09-13T10:20:51.317Z,6124.00
2018-09-13T10:21:51.309Z,5300.00
2018-09-13T10:22:51.320Z,5740.00
2018-09-13T10:23:51.294Z,5536.00
2018-09-13T10:24:51.274Z,4352.00
2018-09-13T10:25:51.260Z,3788.00
2018-09-13T10:26:51.253Z,4468.00
2018-09-13T10:27:51.240Z,5496.00
2018-09-13T10:28:51.231Z,5744.00
2018-09-13T10:29:51.218Z,5676.00
2018-09-13T10:30:51.208Z,5620.00
2018-09-13T10:31:51.195Z,5364.00
2018-09-13T10:32:51.192Z,4936.00
2018-09-13T10:33:51.176Z,4272.00
2018-09-13T10:34:51.166Z,3800.00
2018-09-13T10:35:51.153Z,3724.00
2018-09-13T10:36:51.239Z,4248.00
2018-09-13T10:37:51.132Z,4764.00
2018-09-13T10:38:51.121Z,5256.00
2018-09-13T10:39:51.108Z,5372.00
2018-09-13T10:40:51.106Z,5404.00
2018-09-13T10:41:51.086Z,5428.00
2018-09-13T10:42:51.076Z,4812.00
2018-09-13T10:43:51.064Z,4224.00
2018-09-13T10:44:51.053Z,3820.00
2018-09-13T10:45:51.046Z,3456.00
2018-09-13T10:46:51.033Z,3228.00
2018-09-13T10:47:56.919Z,3228.00
2018-09-13T10:48:51.008Z,3508.00
2018-09-13T10:49:51.001Z,4152.00
2018-09-13T10:50:50.988Z,4640.00
2018-09-13T10:51:50.978Z,4476.00
2018-09-13T10:52:50.968Z,3940.00
2018-09-13T10:53:50.956Z,3504.00
2018-09-13T10:54:50.943Z,3128.00
2018-09-13T10:55:51.020Z,2824.00
2018-09-13T10:56:50.925Z,2660.00
2018-09-13T10:57:50.914Z,2820.00
2018-09-13T10:58:50.899Z,3084.00
2018-09-13T10:59:50.888Z,3348.00
2018-09-13T11:00:50.878Z,3632.00
2018-09-13T11:01:50.868Z,3896.00
2018-09-13T11:02:50.864Z,4060.00
2018-09-13T11:03:50.864Z,4120.00
2018-09-13T11:04:50.837Z,4088.00
2018-09-13T11:05:50.824Z,3900.00
2018-09-13T11:06:50.814Z,3544.00
2018-09-13T11:07:50.801Z,3176.00
2018-09-13T11:08:50.790Z,2896.00
2018-09-13T11:09:50.780Z,2696.00
2018-09-13T11:10:50.863Z,2584.00
2018-09-13T11:11:50.755Z,2600.00
2018-09-13T11:12:50.746Z,2640.00
2018-09-13T11:13:50.734Z,2540.00
2018-09-13T11:14:50.722Z,2460.00
2018-09-13T11:15:50.713Z,2420.00
2018-09-13T11:16:50.701Z,2492.00
2018-09-13T11:17:50.692Z,2620.00
2018-09-13T11:18:50.678Z,2844.00
2018-09-13T11:19:50.668Z,3120.00
2018-09-13T11:20:50.656Z,3276.00
2018-09-13T11:21:50.733Z,3384.00
2018-09-13T11:22:50.633Z,3496.00
2018-09-13T11:23:50.623Z,3488.00
2018-09-13T11:24:50.612Z,3440.00
2018-09-13T11:25:50.612Z,3524.00
2018-09-13T11:26:50.591Z,3704.00
2018-09-13T11:27:50.579Z,3780.00
2018-09-13T11:28:50.567Z,3760.00
2018-09-13T11:29:50.557Z,3604.00
2018-09-13T11:30:50.548Z,3368.00
2018-09-13T11:31:50.536Z,3260.00
2018-09-13T11:32:50.530Z,3156.00
2018-09-13T11:33:50.518Z,3132.00
2018-09-13T11:34:50.502Z,3172.00
2018-09-13T11:35:50.492Z,3136.00
2018-09-13T11:36:50.479Z,3012.00
2018-09-13T11:37:50.470Z,2920.00
2018-09-13T11:38:50.457Z,2988.00
2018-09-13T11:39:50.610Z,3168.00
2018-09-13T11:40:50.679Z,3392.00
2018-09-13T11:41:50.427Z,3528.00
2018-09-13T11:42:50.416Z,3656.00
2018-09-13T11:43:50.404Z,3800.00
2018-09-13T11:44:50.394Z,3776.00
2018-09-13T11:45:50.383Z,3568.00
2018-09-13T11:46:50.376Z,3576.00
2018-09-13T11:47:50.361Z,3712.00
2018-09-13T11:48:50.348Z,3720.00
2018-09-13T11:49:50.342Z,3676.00
2018-09-13T11:50:50.326Z,3520.00
2018-09-13T11:51:50.320Z,3168.00
2018-09-13T11:52:50.306Z,2996.00
2018-09-13T11:53:50.321Z,3124.00
2018-09-13T11:54:50.282Z,3184.00
2018-09-13T11:55:50.273Z,3020.00
2018-09-13T11:56:50.266Z,2932.00
2018-09-13T11:57:50.253Z,3232.00
2018-09-13T11:58:50.240Z,3616.00
2018-09-13T11:59:50.231Z,3752.00
2018-09-13T12:00:50.218Z,3880.00
2018-09-13T12:01:50.259Z,3888.00
2018-09-13T12:02:50.196Z,3716.00
2018-09-13T12:03:50.186Z,3584.00
2018-09-13T12:04:50.172Z,3632.00
2018-09-13T12:05:50.161Z,3804.00
2018-09-13T12:06:50.151Z,3856.00
2018-09-13T12:07:50.141Z,3780.00
2018-09-13T12:08:50.131Z,3664.00
2018-09-13T12:09:50.119Z,3608.00
2018-09-13T12:10:50.106Z,3624.00
2018-09-13T12:11:50.097Z,3692.00
2018-09-13T12:12:50.085Z,3836.00
2018-09-13T12:13:50.076Z,4032.00
2018-09-13T12:14:50.068Z,4228.00
2018-09-13T12:15:50.054Z,4096.00
2018-09-13T12:16:50.040Z,3748.00
2018-09-13T12:17:50.054Z,3452.00
2018-09-13T12:18:50.026Z,3288.00
2018-09-13T12:19:50.012Z,3248.00
2018-09-13T12:20:50.014Z,3364.00
2018-09-13T12:21:49.991Z,3428.00
2018-09-13T12:22:49.974Z,3476.00
2018-09-13T12:23:49.964Z,3532.00
2018-09-13T12:24:49.953Z,3584.00
2018-09-13T12:25:49.945Z,3652.00
2018-09-13T12:26:49.936Z,3624.00
2018-09-13T12:27:49.924Z,3536.00
2018-09-13T12:28:49.913Z,3568.00
2018-09-13T12:29:49.897Z,3684.00
2018-09-13T12:30:49.888Z,3948.00
2018-09-13T12:31:49.877Z,4376.00
2018-09-13T12:32:49.869Z,4448.00
2018-09-13T12:33:49.921Z,4224.00
2018-09-13T12:34:49.843Z,3984.00
2018-09-13T12:35:49.837Z,3748.00
2018-09-13T12:36:49.827Z,3532.00